Time;durP1;ratioP1;P1;durP2;ratioP2;P2;SDS_P1;SDS_P2;PMS_P1;PMS_P2;Temp;Humidity;BMP_temperature;BMP_pressure;BME280_temperature;BME280_humidity;BME280_pressure;Samples;Min_cycle;Max_cycle;Signal;HPM_P1;HPM_P2
2022/04/07 00:00:41;;;;;;;7.10;6.50;;;9.20;88.00;;;;;;4862979;29;20186;-89
2022/04/07 00:03:07;;;;;;;5.83;4.60;;;9.10;88.10;;;;;;4862873;29;20182;-88
2022/04/07 00:05:32;;;;;;;7.87;4.97;;;9.20;88.00;;;;;;4846596;29;20183;-88
2022/04/07 00:07:58;;;;;;;5.30;4.80;;;9.20;87.50;;;;;;4863185;29;20186;-88
2022/04/07 00:10:24;;;;;;;8.10;5.77;;;9.20;87.70;;;;;;4846592;29;20560;-91
2022/04/07 00:12:49;;;;;;;6.13;5.47;;;9.10;88.10;;;;;;4847801;29;20239;-87
2022/04/07 00:15:15;;;;;;;8.30;6.97;;;9.30;87.40;;;;;;4847528;29;20270;-86
2022/04/07 00:17:40;;;;;;;6.90;6.20;;;9.20;87.60;;;;;;4847508;29;20211;-87
2022/04/07 00:20:06;;;;;;;6.07;5.47;;;9.20;87.70;;;;;;4846952;29;20183;-89
2022/04/07 00:22:32;;;;;;;6.93;5.23;;;9.30;87.30;;;;;;4846401;29;20191;-88
2022/04/07 00:24:57;;;;;;;8.87;5.83;;;9.20;87.50;;;;;;4846074;29;20214;-89
2022/04/07 00:27:23;;;;;;;5.13;4.67;;;9.30;87.60;;;;;;4846200;29;20186;-90
2022/04/07 00:29:48;;;;;;;4.80;4.30;;;9.30;87.30;;;;;;4846233;29;20187;-88
2022/04/07 00:32:14;;;;;;;5.07;4.17;;;9.30;87.00;;;;;;4846149;29;20179;-89
2022/04/07 00:34:43;;;;;;;5.83;5.30;;;9.30;86.90;;;;;;4846346;29;20214;-88
2022/04/07 00:37:08;;;;;;;8.63;5.27;;;9.40;86.80;;;;;;4846589;29;20210;-88
2022/04/07 00:39:34;;;;;;;6.70;5.53;;;9.40;86.80;;;;;;4845813;29;20235;-88
2022/04/07 00:42:00;;;;;;;7.17;4.23;;;9.30;86.80;;;;;;4845926;29;20669;-88
2022/04/07 00:44:27;;;;;;;6.27;4.70;;;9.30;86.70;;;;;;4862318;29;20194;-88
2022/04/07 00:46:53;;;;;;;4.70;4.20;;;9.30;86.80;;;;;;4845972;29;20202;-88
2022/04/07 00:49:18;;;;;;;4.43;4.03;;;9.30;87.00;;;;;;4846204;29;20189;-89
2022/04/07 00:51:45;;;;;;;5.87;5.27;;;9.30;86.90;;;;;;4846043;29;20186;-88
2022/04/07 00:54:11;;;;;;;6.60;5.00;;;9.30;86.80;;;;;;4845880;29;20210;-89
2022/04/07 00:56:38;;;;;;;6.20;5.60;;;9.30;86.70;;;;;;4845734;29;20266;-87
2022/04/07 00:59:07;;;;;;;5.63;4.70;;;9.30;87.00;;;;;;4845801;29;20226;-89
2022/04/07 01:01:33;;;;;;;4.10;3.70;;;9.30;87.00;;;;;;4846015;29;20178;-87
2022/04/07 01:03:59;;;;;;;4.90;4.23;;;9.30;87.10;;;;;;4845452;29;20202;-89
2022/04/07 01:06:25;;;;;;;8.70;5.63;;;9.20;87.30;;;;;;4845880;29;20284;-89
2022/04/07 01:08:50;;;;;;;5.63;5.03;;;9.20;87.30;;;;;;4845104;29;20190;-89
2022/04/07 01:11:17;;;;;;;6.57;5.97;;;9.20;87.40;;;;;;4845435;29;20535;-88
2022/04/07 01:13:50;;;;;;;6.10;5.23;;;9.20;87.60;;;;;;4845762;29;20221;-88
2022/04/07 01:16:18;;;;;;;7.00;6.40;;;9.20;87.30;;;;;;4845253;29;20262;-88
2022/04/07 01:18:47;;;;;;;7.57;6.03;;;9.20;87.40;;;;;;4845699;29;20650;-88
2022/04/07 01:21:17;;;;;;;8.27;7.27;;;9.20;87.60;;;;;;4845094;29;20186;-88
2022/04/07 01:24:09;;;;;;;5.17;3.73;;;9.20;87.80;;;;;;4845166;29;20206;-88
2022/04/07 01:26:37;;;;;;;8.00;7.03;;;9.20;87.70;;;;;;4861215;29;20254;-89
2022/04/07 01:29:04;;;;;;;7.10;4.73;;;9.10;88.10;;;;;;4845333;29;20182;-89
2022/04/07 01:31:31;;;;;;;6.23;5.50;;;9.10;87.80;;;;;;4845087;29;20189;-88
2022/04/07 01:33:58;;;;;;;10.80;4.23;;;9.10;87.80;;;;;;4844865;29;20202;-88
2022/04/07 01:36:28;;;;;;;7.90;6.33;;;9.10;87.80;;;;;;4844935;29;20704;-88
2022/04/07 01:38:55;;;;;;;8.43;7.53;;;9.10;87.90;;;;;;4845062;29;20185;-89
2022/04/07 01:41:22;;;;;;;6.43;5.40;;;9.10;87.90;;;;;;4845047;29;20218;-87
2022/04/07 01:43:49;;;;;;;6.20;4.80;;;9.10;88.00;;;;;;4844948;29;20205;-88
2022/04/07 01:46:15;;;;;;;9.13;6.63;;;9.10;87.80;;;;;;4845409;29;20232;-88
2022/04/07 01:48:42;;;;;;;5.67;5.17;;;9.20;87.30;;;;;;4845195;29;20207;-89
2022/04/07 01:51:10;;;;;;;7.10;5.73;;;9.20;86.90;;;;;;4845275;29;20570;-89
2022/04/07 01:53:37;;;;;;;10.07;6.13;;;9.30;86.90;;;;;;4845096;29;20586;-88
2022/04/07 01:56:04;;;;;;;5.67;4.97;;;9.30;86.30;;;;;;4844950;29;20693;-88
2022/04/07 01:58:30;;;;;;;6.70;5.10;;;9.30;86.40;;;;;;4844723;29;20183;-87
2022/04/07 02:00:56;;;;;;;5.43;4.93;;;9.30;86.10;;;;;;4845007;29;20607;-88
2022/04/07 02:03:21;;;;;;;6.63;4.90;;;9.30;86.50;;;;;;4845031;29;20178;-88
2022/04/07 02:05:47;;;;;;;5.90;4.53;;;9.30;86.40;;;;;;4845078;29;20654;-88
2022/04/07 02:08:12;;;;;;;5.90;5.30;;;9.30;86.10;;;;;;4861219;29;20171;-87
2022/04/07 02:10:38;;;;;;;5.07;4.60;;;9.30;86.60;;;;;;4844856;29;20201;-88
2022/04/07 02:13:03;;;;;;;6.00;4.60;;;9.30;86.10;;;;;;4861127;29;20190;-88
2022/04/07 02:15:29;;;;;;;6.40;4.87;;;9.30;86.30;;;;;;4844865;29;20237;-88
2022/04/07 02:17:55;;;;;;;5.13;3.73;;;9.30;86.20;;;;;;4861612;29;20609;-88
2022/04/07 02:20:20;;;;;;;8.10;5.13;;;9.30;86.20;;;;;;4861233;29;20179;-88
2022/04/07 02:22:46;;;;;;;8.43;4.77;;;9.30;86.20;;;;;;4848056;29;20179;-88
2022/04/07 02:25:12;;;;;;;5.27;4.07;;;9.30;86.10;;;;;;4864454;29;20206;-88
2022/04/07 02:27:42;;;;;;;6.93;5.47;;;9.30;86.20;;;;;;4848000;29;20654;-88
2022/04/07 02:30:10;;;;;;;11.00;5.17;;;9.30;85.80;;;;;;4864711;29;20560;-88
2022/04/07 02:32:35;;;;;;;7.53;5.87;;;9.30;86.10;;;;;;4870239;23;20294;-92
2022/04/07 02:35:01;;;;;;;6.33;5.10;;;9.30;86.20;;;;;;4847708;29;20183;-92
2022/04/07 02:37:27;;;;;;;5.70;4.23;;;9.30;86.10;;;;;;4847481;29;20207;-92
2022/04/07 02:39:53;;;;;;;7.57;4.63;;;9.30;86.20;;;;;;4847445;29;20178;-92
2022/04/07 02:42:19;;;;;;;8.50;5.47;;;9.30;86.40;;;;;;4847824;29;20203;-92
2022/04/07 02:44:45;;;;;;;5.27;4.63;;;9.30;86.50;;;;;;4847626;29;20179;-92
2022/04/07 02:47:10;;;;;;;4.47;4.00;;;9.30;86.40;;;;;;4847421;29;20193;-91
2022/04/07 02:49:39;;;;;;;7.60;5.77;;;9.30;86.50;;;;;;4847673;29;20182;-92
2022/04/07 02:52:08;;;;;;;5.63;5.13;;;9.20;86.90;;;;;;4864074;29;20243;-92
2022/04/07 02:54:34;;;;;;;4.87;4.40;;;9.20;87.40;;;;;;4863817;29;20174;-92
2022/04/07 02:57:00;;;;;;;5.80;5.20;;;9.10;88.30;;;;;;4847100;29;20355;-91
2022/04/07 02:59:26;;;;;;;8.27;5.83;;;9.00;88.80;;;;;;4864095;29;20605;-92
2022/04/07 03:01:53;;;;;;;9.87;6.30;;;8.90;89.40;;;;;;4847103;29;20301;-92
2022/04/07 03:04:18;;;;;;;7.67;6.17;;;8.80;90.00;;;;;;4847181;29;20257;-92
2022/04/07 03:06:44;;;;;;;8.43;7.60;;;8.70;90.40;;;;;;4864091;29;20202;-91
2022/04/07 03:09:10;;;;;;;6.87;6.27;;;8.70;90.90;;;;;;4847235;29;20187;-92
2022/04/07 03:11:35;;;;;;;9.40;7.33;;;8.60;91.10;;;;;;4847273;29;20689;-92
2022/04/07 03:14:01;;;;;;;11.63;6.97;;;8.70;91.00;;;;;;4846638;29;20685;-91
2022/04/07 03:16:26;;;;;;;7.97;6.23;;;8.60;91.20;;;;;;4863275;29;20285;-91
2022/04/07 03:18:52;;;;;;;9.57;6.23;;;8.60;91.40;;;;;;4863457;29;20611;-91
2022/04/07 03:21:17;;;;;;;6.17;5.40;;;8.60;91.50;;;;;;4863221;29;20266;-91
2022/04/07 03:23:43;;;;;;;8.03;6.33;;;8.60;91.30;;;;;;4863671;29;20179;-92
2022/04/07 03:26:09;;;;;;;10.33;8.00;;;8.60;91.30;;;;;;4863358;29;20175;-92
2022/04/07 03:28:34;;;;;;;15.67;10.27;;;8.60;91.30;;;;;;4848002;29;20174;-92
2022/04/07 03:31:00;;;;;;;8.63;5.80;;;8.70;91.20;;;;;;4846892;29;20186;-91
2022/04/07 03:33:26;;;;;;;11.37;8.70;;;8.70;90.80;;;;;;4861917;29;20224;-92
2022/04/07 03:35:51;;;;;;;6.10;5.03;;;8.70;90.70;;;;;;4862706;29;20199;-92
2022/04/07 03:38:17;;;;;;;4.03;3.40;;;8.40;90.30;;;;;;4846514;29;20292;-92
2022/04/07 03:40:42;;;;;;;2.90;2.37;;;8.20;89.50;;;;;;4846319;29;20655;-92
2022/04/07 03:43:08;;;;;;;2.60;2.40;;;8.00;88.10;;;;;;4862569;29;20573;-91
2022/04/07 03:45:33;;;;;;;4.07;2.63;;;7.90;88.20;;;;;;4846433;29;20225;-92
2022/04/07 03:47:59;;;;;;;3.40;3.10;;;7.90;88.80;;;;;;4846047;29;20601;-91
2022/04/07 03:50:24;;;;;;;6.00;4.73;;;7.80;89.30;;;;;;4862772;29;20540;-92
2022/04/07 03:52:50;;;;;;;6.90;4.50;;;8.00;89.80;;;;;;4845993;29;20213;-92
2022/04/07 03:55:16;;;;;;;8.47;7.67;;;8.00;90.10;;;;;;4846409;29;20190;-91
2022/04/07 03:57:41;;;;;;;7.33;5.30;;;8.40;91.10;;;;;;4846034;29;20585;-92
2022/04/07 04:00:07;;;;;;;6.37;5.67;;;8.60;90.70;;;;;;4846123;29;20300;-92
2022/04/07 04:02:33;;;;;;;8.63;6.57;;;8.70;90.50;;;;;;4862383;29;20592;-91
2022/04/07 04:04:58;;;;;;;7.03;5.47;;;8.70;90.00;;;;;;4845766;29;20189;-92
2022/04/07 04:07:24;;;;;;;6.40;5.17;;;8.70;89.80;;;;;;4862664;29;20218;-91
2022/04/07 04:09:50;;;;;;;5.83;4.63;;;8.80;89.50;;;;;;4845888;29;20190;-91
2022/04/07 04:12:15;;;;;;;7.00;5.50;;;8.70;89.70;;;;;;4846116;29;20207;-91
2022/04/07 04:14:41;;;;;;;5.23;4.17;;;8.90;88.60;;;;;;4846583;29;20220;-92
2022/04/07 04:17:06;;;;;;;11.23;5.80;;;8.90;88.10;;;;;;4845547;29;20213;-91
2022/04/07 04:19:33;;;;;;;4.50;4.10;;;8.90;87.80;;;;;;4845853;29;20258;-92
2022/04/07 04:21:59;;;;;;;5.20;4.17;;;9.00;87.20;;;;;;4845586;29;20618;-91
2022/04/07 04:24:24;;;;;;;6.13;3.77;;;9.10;86.90;;;;;;4862213;29;20217;-92
2022/04/07 04:26:50;;;;;;;3.83;3.33;;;9.10;87.30;;;;;;4845435;29;20178;-91
2022/04/07 04:29:15;;;;;;;6.20;3.70;;;9.10;87.40;;;;;;4845423;29;20231;-91
2022/04/07 04:31:41;;;;;;;6.20;3.97;;;9.00;87.60;;;;;;4845121;29;20266;-92
2022/04/07 04:34:06;;;;;;;3.83;3.20;;;8.90;87.50;;;;;;4845518;29;20167;-91
2022/04/07 04:36:34;;;;;;;10.27;3.20;;;8.80;87.50;;;;;;4845267;29;20214;-92
2022/04/07 04:39:00;;;;;;;4.43;2.57;;;8.70;87.50;;;;;;4862133;29;20175;-92
2022/04/07 04:41:25;;;;;;;2.87;2.43;;;8.60;88.00;;;;;;4845097;29;20203;-92
2022/04/07 04:43:51;;;;;;;2.93;2.17;;;8.50;88.00;;;;;;4861768;29;20645;-92
2022/04/07 04:46:16;;;;;;;4.03;2.20;;;8.40;87.90;;;;;;4845300;29;20186;-91
2022/04/07 04:48:42;;;;;;;2.73;2.40;;;8.40;88.40;;;;;;4845489;29;20258;-91
2022/04/07 04:51:08;;;;;;;3.77;3.27;;;8.30;89.30;;;;;;4845166;29;20221;-91
2022/04/07 04:53:33;;;;;;;5.00;3.40;;;8.30;89.60;;;;;;4845067;29;20194;-91
2022/04/07 04:55:59;;;;;;;4.70;4.30;;;8.40;89.80;;;;;;4848236;29;20210;-92
2022/04/07 04:58:25;;;;;;;4.37;3.97;;;8.40;90.00;;;;;;4844939;29;20187;-92
2022/04/07 05:00:50;;;;;;;7.03;5.13;;;8.60;90.00;;;;;;4845038;29;20673;-92
2022/04/07 05:03:16;;;;;;;5.37;4.73;;;8.70;89.30;;;;;;4845099;29;20278;-91
2022/04/07 05:05:41;;;;;;;4.53;4.10;;;8.80;89.10;;;;;;4844843;29;20183;-91
2022/04/07 05:08:07;;;;;;;4.57;4.17;;;8.80;88.80;;;;;;4845237;29;20183;-92
2022/04/07 05:10:33;;;;;;;5.27;4.77;;;8.80;88.90;;;;;;4844718;29;20185;-92
2022/04/07 05:12:59;;;;;;;7.60;4.57;;;8.80;89.30;;;;;;4844677;29;20205;-92
2022/04/07 05:15:24;;;;;;;7.07;6.33;;;8.90;88.80;;;;;;4845270;29;20235;-91
2022/04/07 05:17:51;;;;;;;5.33;4.17;;;8.80;89.20;;;;;;4861334;29;20207;-91
2022/04/07 05:20:17;;;;;;;5.43;4.33;;;8.80;89.30;;;;;;4845301;29;20251;-92
2022/04/07 05:22:43;;;;;;;5.17;4.47;;;8.80;89.00;;;;;;4844817;29;20682;-92
2022/04/07 05:25:09;;;;;;;5.57;4.03;;;8.80;89.00;;;;;;4844971;29;20642;-92
2022/04/07 05:27:36;;;;;;;5.17;3.50;;;8.80;89.00;;;;;;4844794;29;20205;-92
2022/04/07 05:30:07;;;;;;;11.97;4.27;;;8.80;89.00;;;;;;4844819;29;20187;-92
2022/04/07 05:32:34;;;;;;;4.63;3.63;;;8.80;88.70;;;;;;4844669;29;20282;-92
2022/04/07 05:35:00;;;;;;;6.73;3.00;;;8.80;88.80;;;;;;4844586;29;20186;-92
2022/04/07 05:37:25;;;;;;;5.43;3.27;;;8.80;88.60;;;;;;4860994;29;20221;-91
2022/04/07 05:39:51;;;;;;;9.00;3.37;;;8.80;88.50;;;;;;4844663;29;20183;-92
2022/04/07 05:42:18;;;;;;;4.83;3.47;;;8.80;88.80;;;;;;4844436;29;20281;-92
2022/04/07 05:44:43;;;;;;;6.93;4.07;;;8.70;89.30;;;;;;4844712;29;20187;-92
2022/04/07 05:47:09;;;;;;;7.43;3.83;;;8.60;89.60;;;;;;4861514;29;20190;-92
2022/04/07 05:49:35;;;;;;;6.60;4.23;;;8.60;89.90;;;;;;4861736;29;20651;-91
2022/04/07 05:52:03;;;;;;;8.27;2.77;;;8.60;90.10;;;;;;4846501;29;20217;-92
2022/04/07 05:54:29;;;;;;;4.70;3.57;;;8.60;90.00;;;;;;4861013;29;20183;-92
2022/04/07 05:56:54;;;;;;;6.07;3.30;;;8.60;89.90;;;;;;4847029;29;20232;-91
2022/04/07 05:59:20;;;;;;;4.50;2.63;;;8.60;89.90;;;;;;4848270;29;20197;-92
2022/04/07 06:01:46;;;;;;;7.40;3.00;;;8.60;90.10;;;;;;4864416;29;20753;-92
2022/04/07 06:04:11;;;;;;;5.43;3.83;;;8.60;90.10;;;;;;4848049;29;20182;-92
2022/04/07 06:06:37;;;;;;;4.10;3.13;;;8.70;89.70;;;;;;4848754;29;20266;-92
2022/04/07 06:09:03;;;;;;;3.63;2.50;;;8.70;89.30;;;;;;4848573;29;20190;-91
2022/04/07 06:11:29;;;;;;;2.73;2.50;;;8.70;89.30;;;;;;4847775;29;20285;-91
2022/04/07 06:13:54;;;;;;;4.07;3.03;;;8.70;89.00;;;;;;4848001;29;20717;-92
2022/04/07 06:16:20;;;;;;;7.37;3.10;;;8.80;89.10;;;;;;4848156;29;20214;-92
2022/04/07 06:18:46;;;;;;;2.90;2.30;;;8.70;89.20;;;;;;4847762;29;20214;-91
2022/04/07 06:21:11;;;;;;;6.27;3.20;;;8.70;88.90;;;;;;4847580;29;20178;-92
2022/04/07 06:23:37;;;;;;;8.17;2.40;;;8.80;88.80;;;;;;4864226;29;20179;-91
2022/04/07 06:26:02;;;;;;;4.67;3.50;;;8.80;89.00;;;;;;4848123;29;20191;-92
2022/04/07 06:28:28;;;;;;;8.00;3.93;;;8.80;89.40;;;;;;4847776;29;20183;-92
2022/04/07 06:30:54;;;;;;;7.20;3.13;;;8.70;89.40;;;;;;4847746;29;20183;-92
2022/04/07 06:33:21;;;;;;;10.93;3.80;;;8.70;89.60;;;;;;4864041;29;20274;-92
2022/04/07 06:35:48;;;;;;;5.53;2.53;;;8.70;89.70;;;;;;4864484;29;20181;-91
2022/04/07 06:38:14;;;;;;;10.37;4.20;;;8.70;89.70;;;;;;4863816;29;20258;-92
2022/04/07 06:40:39;;;;;;;8.63;4.67;;;8.70;89.70;;;;;;4848708;29;20225;-92
2022/04/07 06:43:05;;;;;;;10.60;5.00;;;8.70;90.30;;;;;;4850994;29;20245;-92
2022/04/07 06:45:30;;;;;;;10.77;4.87;;;8.60;90.60;;;;;;4864618;29;20218;-93
2022/04/07 06:47:56;;;;;;;9.50;3.77;;;8.60;90.60;;;;;;4848501;29;20254;-92
2022/04/07 06:50:24;;;;;;;9.87;3.63;;;8.70;89.60;;;;;;4850111;29;20642;-92
2022/04/07 06:52:49;;;;;;;5.87;3.17;;;8.80;89.30;;;;;;4847803;29;20207;-92
2022/04/07 06:55:16;;;;;;;5.40;3.37;;;8.90;88.70;;;;;;4847681;29;20198;-91
2022/04/07 06:57:51;;;;;;;5.50;3.73;;;9.10;88.20;;;;;;4847526;29;20218;-93
2022/04/07 07:00:19;;;;;;;7.60;2.53;;;9.10;87.00;;;;;;4848396;29;20209;-92
2022/04/07 07:02:51;;;;;;;12.37;3.63;;;9.10;87.50;;;;;;4847509;29;20210;-92
2022/04/07 07:05:18;;;;;;;10.27;3.60;;;9.10;87.60;;;;;;4849180;29;20231;-92
2022/04/07 07:07:43;;;;;;;5.53;3.13;;;9.20;87.80;;;;;;4864008;29;20642;-92
2022/04/07 07:10:10;;;;;;;10.33;3.57;;;9.10;88.00;;;;;;4864847;29;20183;-92
2022/04/07 07:12:35;;;;;;;9.07;3.77;;;9.20;88.10;;;;;;4848787;29;20211;-92
2022/04/07 07:15:01;;;;;;;8.63;2.30;;;9.20;88.30;;;;;;4848723;29;20247;-92
2022/04/07 07:17:33;;;;;;;6.80;3.57;;;9.20;88.30;;;;;;4849757;29;20221;-92
2022/04/07 07:20:12;;;;;;;9.60;3.37;;;9.20;88.20;;;;;;4849341;29;20179;-92
2022/04/07 07:22:41;;;;;;;15.20;3.70;;;9.10;88.40;;;;;;4849419;29;20202;-92
2022/04/07 07:25:09;;;;;;;20.40;5.23;;;9.10;88.40;;;;;;4847309;29;20190;-92
2022/04/07 07:27:42;;;;;;;22.83;3.90;;;9.10;88.70;;;;;;4864536;29;20183;-92
2022/04/07 07:30:09;;;;;;;14.23;4.00;;;9.00;89.30;;;;;;4847042;29;20179;-92
2022/04/07 07:32:42;;;;;;;10.80;4.70;;;8.90;89.90;;;;;;4862962;29;20597;-91
2022/04/07 07:35:10;;;;;;;11.63;5.10;;;8.90;89.80;;;;;;4846994;29;20279;-91
2022/04/07 07:37:36;;;;;;;7.77;4.73;;;8.80;90.00;;;;;;4863257;29;20221;-91
2022/04/07 07:40:08;;;;;;;9.60;6.07;;;8.80;90.20;;;;;;4846828;29;20210;-91
2022/04/07 07:42:37;;;;;;;8.10;5.30;;;8.70;90.90;;;;;;4863462;29;20202;-91
2022/04/07 07:45:04;;;;;;;10.27;5.90;;;8.70;90.90;;;;;;4846489;29;20215;-91
2022/04/07 07:47:30;;;;;;;12.93;5.70;;;8.70;91.30;;;;;;4863216;29;20179;-91
2022/04/07 07:49:56;;;;;;;5.90;4.87;;;8.70;91.20;;;;;;4846516;29;20187;-92
2022/04/07 07:52:21;;;;;;;5.23;4.07;;;8.70;90.60;;;;;;4846787;29;20207;-91
2022/04/07 07:54:47;;;;;;;7.83;4.77;;;8.80;90.20;;;;;;4862792;29;20199;-91
2022/04/07 07:57:13;;;;;;;11.93;4.47;;;8.80;90.20;;;;;;4846556;29;20214;-92
2022/04/07 07:59:38;;;;;;;8.37;5.23;;;8.80;89.60;;;;;;4846306;29;20277;-91
2022/04/07 08:02:04;;;;;;;4.07;3.63;;;8.80;89.80;;;;;;4845892;29;20211;-91
2022/04/07 08:04:29;;;;;;;3.40;3.10;;;8.80;89.60;;;;;;4846533;29;20182;-91
2022/04/07 08:06:56;;;;;;;5.00;3.77;;;8.80;89.90;;;;;;4846039;29;20193;-91
2022/04/07 08:09:22;;;;;;;5.83;4.67;;;8.90;89.60;;;;;;4845937;29;20179;-91
2022/04/07 08:11:47;;;;;;;6.27;4.43;;;8.90;89.40;;;;;;4846632;29;20262;-91
2022/04/07 08:14:13;;;;;;;18.30;5.93;;;8.80;89.80;;;;;;4846353;29;20194;-91
2022/04/07 08:16:39;;;;;;;10.80;5.33;;;8.80;90.10;;;;;;4845775;29;20210;-90
2022/04/07 08:19:05;;;;;;;9.17;4.13;;;8.80;90.20;;;;;;4846392;29;20190;-90
2022/04/07 08:21:31;;;;;;;11.20;4.60;;;8.80;90.60;;;;;;4845847;29;20198;-91
2022/04/07 08:23:57;;;;;;;5.30;4.53;;;8.80;90.30;;;;;;4846274;29;20664;-91
2022/04/07 08:26:22;;;;;;;9.70;5.80;;;8.80;91.00;;;;;;4846101;29;20182;-91
2022/04/07 08:28:48;;;;;;;11.40;5.50;;;8.80;91.00;;;;;;4845895;29;20186;-91
2022/04/07 08:31:14;;;;;;;10.43;7.00;;;8.70;91.30;;;;;;4845690;29;20198;-91
2022/04/07 08:33:39;;;;;;;6.03;2.90;;;8.70;91.50;;;;;;4846412;29;20194;-91
2022/04/07 08:36:05;;;;;;;2.23;1.50;;;7.40;88.20;;;;;;4846085;29;20709;-92
2022/04/07 08:38:31;;;;;;;2.43;1.60;;;5.70;87.60;;;;;;4845488;29;20216;-91
2022/04/07 08:40:56;;;;;;;4.13;1.47;;;5.20;89.50;;;;;;4862355;29;20262;-92
2022/04/07 08:43:23;;;;;;;2.07;1.50;;;5.30;90.10;;;;;;4862256;29;20292;-91
2022/04/07 08:45:49;;;;;;;2.77;1.33;;;5.30;90.80;;;;;;4845620;29;20192;-91
2022/04/07 08:48:15;;;;;;;1.80;1.30;;;5.40;90.90;;;;;;4845639;29;20212;-91
2022/04/07 08:50:42;;;;;;;2.27;1.63;;;5.40;91.10;;;;;;4845721;29;20226;-91
2022/04/07 08:53:08;;;;;;;1.20;1.20;;;5.50;91.30;;;;;;4845443;29;20205;-91
2022/04/07 08:55:37;;;;;;;1.50;1.40;;;5.40;91.20;;;;;;4845504;29;20569;-91
2022/04/07 08:58:03;;;;;;;1.50;1.40;;;5.40;91.20;;;;;;4845858;29;20216;-91
2022/04/07 09:00:28;;;;;;;1.80;1.50;;;5.40;91.00;;;;;;4846018;29;20610;-91
2022/04/07 09:02:55;;;;;;;1.77;1.30;;;5.50;91.20;;;;;;4845089;29;20206;-91
2022/04/07 09:05:23;;;;;;;1.80;1.30;;;5.60;91.10;;;;;;4845023;29;20181;-91
2022/04/07 09:07:50;;;;;;;2.30;1.60;;;5.70;91.30;;;;;;4845910;29;20244;-91
2022/04/07 09:10:19;;;;;;;5.10;1.70;;;5.80;91.30;;;;;;4861779;29;20204;-91
2022/04/07 09:12:44;;;;;;;2.17;1.90;;;5.90;91.30;;;;;;4861604;29;20315;-91
2022/04/07 09:15:12;;;;;;;2.83;1.80;;;6.00;91.20;;;;;;4845206;29;20625;-91
2022/04/07 09:17:52;;;;;;;1.80;1.40;;;6.10;91.20;;;;;;4848817;29;20219;-93
2022/04/07 09:20:18;;;;;;;2.73;1.50;;;6.10;91.00;;;;;;4862500;29;20254;-92
2022/04/07 09:22:44;;;;;;;3.80;1.30;;;6.20;91.00;;;;;;4845067;29;20622;-90
2022/04/07 09:25:11;;;;;;;1.70;1.57;;;6.20;90.40;;;;;;4844781;29;20234;-91
2022/04/07 09:27:41;;;;;;;1.67;1.50;;;6.30;90.60;;;;;;4845034;29;20183;-91
2022/04/07 09:30:08;;;;;;;2.63;1.53;;;6.30;90.20;;;;;;4846450;29;20243;-92
2022/04/07 09:32:43;;;;;;;3.27;1.60;;;6.30;90.20;;;;;;4849639;29;20229;-91
2022/04/07 09:35:11;;;;;;;2.70;1.33;;;6.30;90.20;;;;;;4865618;29;20241;-91
2022/04/07 09:37:39;;;;;;;2.90;1.50;;;6.30;90.10;;;;;;4848432;29;20217;-91
2022/04/07 09:40:09;;;;;;;2.00;1.10;;;6.20;90.00;;;;;;4848620;29;20186;-90
2022/04/07 09:42:35;;;;;;;2.20;1.83;;;6.20;90.10;;;;;;4848421;29;20680;-91
2022/04/07 09:45:03;;;;;;;2.60;1.73;;;6.20;90.30;;;;;;4865396;29;20182;-91
2022/04/07 09:47:39;;;;;;;2.67;1.90;;;6.20;90.10;;;;;;4848992;29;20185;-91
2022/04/07 09:50:24;;;;;;;3.50;2.03;;;6.10;90.00;;;;;;4850063;29;20178;-90
2022/04/07 09:53:01;;;;;;;3.13;1.40;;;6.10;90.20;;;;;;4849580;29;20205;-91
2022/04/07 09:55:35;;;;;;;1.40;1.30;;;6.10;90.20;;;;;;4865760;29;20187;-91
2022/04/07 09:58:03;;;;;;;1.57;1.47;;;6.00;90.10;;;;;;4849647;29;20238;-91
2022/04/07 10:00:29;;;;;;;3.47;1.70;;;6.00;90.00;;;;;;4848942;29;20186;-91
2022/04/07 10:02:57;;;;;;;2.73;1.67;;;6.00;90.20;;;;;;4848432;29;20206;-91
2022/04/07 10:05:23;;;;;;;3.67;1.50;;;6.00;90.20;;;;;;4864963;29;20181;-91
2022/04/07 10:07:49;;;;;;;1.73;1.60;;;6.00;90.20;;;;;;4848985;29;20189;-91
2022/04/07 10:10:15;;;;;;;1.40;1.30;;;6.00;89.90;;;;;;4848140;29;20337;-90
2022/04/07 10:12:41;;;;;;;2.47;1.60;;;6.00;90.20;;;;;;4847816;29;20299;-91
2022/04/07 10:15:07;;;;;;;2.30;1.40;;;6.00;90.50;;;;;;4848810;29;20189;-91
2022/04/07 10:17:35;;;;;;;5.73;2.03;;;5.90;90.60;;;;;;4847753;29;20209;-90
2022/04/07 10:20:13;;;;;;;3.37;2.13;;;5.80;90.60;;;;;;4865184;29;20278;-92
2022/04/07 10:22:57;;;;;;;1.40;1.33;;;5.80;90.80;;;;;;4849040;29;20584;-92
2022/04/07 10:25:24;;;;;;;1.70;1.60;;;5.70;90.60;;;;;;4848739;29;20178;-92
2022/04/07 10:27:52;;;;;;;5.47;1.80;;;5.70;91.00;;;;;;4848089;29;20196;-92
2022/04/07 10:30:18;;;;;;;1.50;1.40;;;5.70;90.90;;;;;;4848377;29;20192;-90
2022/04/07 10:32:57;;;;;;;2.33;1.50;;;5.60;90.40;;;;;;4847528;29;20232;-90
2022/04/07 10:35:28;;;;;;;2.27;1.33;;;5.60;90.70;;;;;;4847608;29;20233;-91
2022/04/07 10:37:55;;;;;;;4.70;1.60;;;5.70;90.80;;;;;;4850733;29;20274;-92
2022/04/07 10:40:50;;;;;;;4.93;1.87;;;5.70;90.60;;;;;;4870986;23;20240;-89
2022/04/07 10:43:18;;;;;;;1.90;1.37;;;5.70;90.60;;;;;;4863711;29;20652;-91
2022/04/07 10:46:02;;;;;;;2.17;1.40;;;5.70;90.40;;;;;;4876841;29;20554;-93
2022/04/07 10:48:29;;;;;;;2.20;1.50;;;5.70;90.60;;;;;;4859743;29;20177;-93
2022/04/07 10:51:04;;;;;;;3.43;1.57;;;5.70;90.40;;;;;;4856962;29;20187;-91
2022/04/07 10:53:41;;;;;;;3.67;1.80;;;5.70;90.60;;;;;;4854612;29;20216;-92
2022/04/07 10:56:24;;;;;;;2.50;1.40;;;5.70;90.50;;;;;;4852594;29;20205;-90
2022/04/07 10:58:54;;;;;;;1.67;1.57;;;5.80;90.50;;;;;;4863706;29;20218;-91
2022/04/07 11:01:29;;;;;;;1.50;1.40;;;6.10;90.50;;;;;;4848080;29;20191;-90
2022/04/07 11:04:22;;;;;;;2.60;1.40;;;6.40;90.30;;;;;;4847071;29;20288;-91
2022/04/07 11:07:15;;;;;;;4.50;1.70;;;6.40;89.80;;;;;;4847639;29;20228;-90
2022/04/07 11:09:47;;;;;;;2.73;1.97;;;6.40;90.00;;;;;;4863599;29;20202;-90
2022/04/07 11:12:24;;;;;;;1.50;1.40;;;6.60;89.80;;;;;;4846595;29;20270;-90
2022/04/07 11:14:53;;;;;;;2.27;1.40;;;7.20;89.90;;;;;;4846754;29;20231;-90
2022/04/07 11:17:32;;;;;;;1.40;1.30;;;7.10;87.60;;;;;;4846573;29;20648;-90
2022/04/07 11:20:17;;;;;;;2.20;1.60;;;6.90;87.90;;;;;;4846737;29;20741;-91
2022/04/07 11:23:08;;;;;;;1.70;1.43;;;7.00;89.20;;;;;;4848306;29;20175;-90
2022/04/07 11:25:42;;;;;;;2.47;1.50;;;7.00;88.50;;;;;;4847211;29;20175;-90
2022/04/07 11:28:10;;;;;;;4.53;1.97;;;7.60;88.60;;;;;;4846906;29;20175;-91
2022/04/07 11:30:49;;;;;;;2.93;1.47;;;7.20;86.90;;;;;;4862663;29;20203;-91
2022/04/07 11:33:18;;;;;;;6.73;2.03;;;7.10;87.20;;;;;;4846185;29;20187;-91
2022/04/07 11:35:44;;;;;;;2.17;1.90;;;7.30;87.90;;;;;;4848432;29;20191;-93
2022/04/07 11:38:10;;;;;;;3.47;2.00;;;7.50;87.90;;;;;;4848238;29;20215;-93
2022/04/07 11:40:36;;;;;;;5.77;1.50;;;7.50;87.40;;;;;;4852359;29;20218;-93
2022/04/07 11:43:02;;;;;;;2.57;1.80;;;8.00;87.20;;;;;;4854984;29;20190;-93
2022/04/07 11:45:31;;;;;;;1.63;1.53;;;8.20;86.90;;;;;;4852344;29;20260;-92
2022/04/07 11:47:57;;;;;;;6.27;2.00;;;8.00;85.80;;;;;;4848498;29;20217;-92
2022/04/07 11:50:25;;;;;;;6.07;1.87;;;8.10;86.20;;;;;;4857032;29;20206;-92
2022/04/07 11:52:52;;;;;;;5.40;2.57;;;8.50;87.60;;;;;;4867141;29;20231;-91
2022/04/07 11:55:29;;;;;;;4.20;2.43;;;8.50;86.50;;;;;;4849091;29;20190;-90
2022/04/07 11:58:01;;;;;;;3.60;1.77;;;8.60;86.60;;;;;;4846500;29;20233;-91
2022/04/07 12:00:31;;;;;;;6.10;2.73;;;8.70;84.50;;;;;;4847386;29;20223;-92
2022/04/07 12:03:01;;;;;;;3.47;1.93;;;9.10;86.40;;;;;;4846099;29;20182;-90
2022/04/07 12:05:28;;;;;;;4.87;2.13;;;8.70;83.40;;;;;;4847092;29;20175;-90
2022/04/07 12:08:13;;;;;;;7.07;1.83;;;8.80;85.20;;;;;;4847363;29;20198;-91
2022/04/07 12:10:39;;;;;;;8.87;2.07;;;8.60;83.60;;;;;;4846176;29;20198;-91
2022/04/07 12:13:06;;;;;;;2.80;2.00;;;8.90;83.70;;;;;;4846323;29;20190;-90
2022/04/07 12:15:34;;;;;;;4.10;1.93;;;9.00;83.40;;;;;;4845919;29;20273;-90
2022/04/07 12:18:09;;;;;;;4.00;1.57;;;9.20;83.50;;;;;;4863221;29;20615;-91
2022/04/07 12:20:36;;;;;;;3.87;1.87;;;9.10;81.70;;;;;;4846285;29;20206;-92
2022/04/07 12:23:10;;;;;;;1.53;1.43;;;9.40;82.00;;;;;;4846607;29;20654;-92
2022/04/07 12:25:40;;;;;;;5.03;1.70;;;9.70;83.10;;;;;;4846525;29;20179;-91
2022/04/07 12:28:06;;;;;;;2.67;1.63;;;9.80;81.20;;;;;;4865950;29;20185;-90
2022/04/07 12:30:45;;;;;;;7.17;2.07;;;9.50;81.50;;;;;;4847816;29;20571;-91
2022/04/07 12:33:10;;;;;;;9.13;1.90;;;9.50;82.00;;;;;;4845516;29;20242;-92
2022/04/07 12:35:46;;;;;;;10.03;1.97;;;9.80;81.20;;;;;;4845902;29;20186;-91
2022/04/07 12:38:12;;;;;;;2.20;1.47;;;9.30;81.30;;;;;;4845324;29;20633;-91
2022/04/07 12:40:39;;;;;;;2.77;1.70;;;9.00;81.10;;;;;;4845749;29;20217;-92
2022/04/07 12:43:04;;;;;;;3.73;2.17;;;8.90;82.50;;;;;;4848234;29;20194;-92
2022/04/07 12:45:30;;;;;;;4.10;1.70;;;8.90;82.00;;;;;;4848718;29;20190;-91
2022/04/07 12:48:10;;;;;;;4.77;2.27;;;8.90;81.90;;;;;;4846242;29;20206;-92
2022/04/07 12:50:37;;;;;;;6.53;2.10;;;8.70;83.30;;;;;;4845136;29;20202;-91
2022/04/07 12:53:03;;;;;;;7.30;2.47;;;8.50;84.20;;;;;;4844928;29;20612;-91
2022/04/07 12:55:37;;;;;;;9.57;2.80;;;8.40;85.00;;;;;;4845385;29;20182;-92
2022/04/07 12:58:04;;;;;;;5.13;2.97;;;8.30;86.10;;;;;;4846152;29;20210;-91